Route Details

Aircraft Information
Group: North America Fleet
Types: B738, B752, B762, B763
Route Data
Distance: 1192nm
Duration: 3h 10m
Origin METAR: KBOI 160053Z 33007KT 10SM CLR 36/M01 A2991 RMK AO2 SLP097 T03611006
Dest. METAR: KRFD 160054Z 05003KT 10SM SCT100 OVC250 22/17 A3009 RMK AO2 SLP188 T02220167 $
Freight Data
(for Aug 16, 2022)
Load Factor:
61%
Manifested Cargo: 69,480lbs
Financial History
Total Freight: 0lbs
Average Load: 0lbs/flt
Fuel Used: 0lbs
Avg. Fuel Used: 0lbs/flt
Fuel Expense: $0
Avg. Fuel Expense: $0
Avg. Fuel Cost: $0/lbs
Total Gross Income: $0
Pilot Pay: $0
Total Expenses: $0
Total Revenue: $0
Average Revenue: $0

Capitol Logistics 461




KBOI
Boise Air Terminal/Gowen field
Boise, Idaho
KRFD
Chicago/Rockford International Airport
Rockford, Illinois

Activity Log

Date Flight Route Aircraft Duration
No Flights Yet